Time;durP1;ratioP1;P1;durP2;ratioP2;P2;SDS_P1;SDS_P2;PMS_P1;PMS_P2;Temp;Humidity;BMP_temperature;BMP_pressure;BME280_temperature;BME280_humidity;BME280_pressure;Samples;Min_cycle;Max_cycle;Signal;HPM_P1;HPM_P2
2021/08/29 00:01:39;;;;;;;6.60;5.15;;;;;;;16.21;52.32;100019.03;5129664;27;20019;-62
2021/08/29 00:04:05;;;;;;;10.52;4.78;;;;;;;16.14;52.65;100015.25;5115517;27;20036;-61
2021/08/29 00:06:30;;;;;;;8.57;5.03;;;;;;;16.16;52.30;100013.25;5112569;28;20031;-61
2021/08/29 00:08:56;;;;;;;8.07;5.05;;;;;;;16.15;52.63;100005.28;5112086;28;20064;-62
2021/08/29 00:11:22;;;;;;;7.97;5.18;;;;;;;16.13;52.36;100005.44;5120439;27;20035;-64
2021/08/29 00:13:48;;;;;;;9.18;5.32;;;;;;;15.94;52.77;99987.56;5130420;27;20023;-61
2021/08/29 00:16:13;;;;;;;9.43;5.30;;;;;;;16.05;52.76;100005.38;5132118;27;20332;-60
2021/08/29 00:18:39;;;;;;;6.20;5.10;;;;;;;15.83;53.06;99967.00;5131619;27;20027;-60
2021/08/29 00:21:05;;;;;;;8.15;5.63;;;;;;;15.96;53.01;100000.91;5132507;27;20035;-60
2021/08/29 00:23:30;;;;;;;10.75;5.20;;;;;;;15.93;52.93;100008.31;5130792;27;20035;-60
2021/08/29 00:25:56;;;;;;;9.80;5.10;;;;;;;15.87;53.55;100006.19;5132406;27;20055;-61
2021/08/29 00:28:21;;;;;;;8.60;5.05;;;;;;;15.83;53.30;100002.09;5132341;27;20027;-62
2021/08/29 00:30:47;;;;;;;10.68;5.78;;;;;;;15.36;53.52;99909.56;5132510;27;20027;-61
2021/08/29 00:33:12;;;;;;;9.77;5.55;;;;;;;15.76;53.66;99991.06;5132373;27;20027;-61
2021/08/29 00:35:38;;;;;;;9.25;5.90;;;;;;;15.88;53.25;99983.63;5130217;27;20062;-61
2021/08/29 00:38:03;;;;;;;7.63;5.43;;;;;;;15.66;53.36;99968.72;5132115;27;20034;-63
2021/08/29 00:40:29;;;;;;;14.68;5.60;;;;;;;15.84;53.44;99986.78;5132231;27;20464;-62
2021/08/29 00:42:54;;;;;;;8.20;5.00;;;;;;;15.74;53.51;99976.03;5110459;28;20087;-61
2021/08/29 00:45:20;;;;;;;10.60;5.80;;;;;;;15.79;53.49;99990.78;5112135;28;20031;-61
2021/08/29 00:47:46;;;;;;;8.07;5.35;;;;;;;15.62;53.42;99943.88;5115783;28;20063;-61
2021/08/29 00:50:12;;;;;;;12.15;5.93;;;;;;;15.81;53.17;99971.72;5132170;27;20065;-62
2021/08/29 00:52:41;;;;;;;10.05;5.90;;;;;;;15.91;53.10;99980.63;5131935;27;20031;-62
2021/08/29 00:55:09;;;;;;;12.35;6.20;;;;;;;15.88;52.95;99972.81;5135940;27;20034;-61
2021/08/29 00:57:36;;;;;;;11.77;6.55;;;;;;;15.94;52.85;99976.75;5134646;27;20063;-61
2021/08/29 01:00:04;;;;;;;9.70;6.50;;;;;;;15.79;52.67;99957.53;5136584;27;20054;-60
2021/08/29 01:02:31;;;;;;;11.60;6.68;;;;;;;15.84;53.08;99968.72;5134524;27;20038;-61
2021/08/29 01:05:18;;;;;;;11.73;6.80;;;;;;;15.74;52.81;99946.34;5136172;27;20125;-62
2021/08/29 01:07:52;;;;;;;14.52;7.25;;;;;;;15.93;52.59;99975.94;5125234;27;20070;-61
2021/08/29 01:10:33;;;;;;;14.43;7.68;;;;;;;16.00;52.68;99973.44;5135071;27;20090;-61
2021/08/29 01:12:59;;;;;;;12.75;7.72;;;;;;;15.89;53.08;99973.69;5135008;27;20031;-62
2021/08/29 01:15:28;;;;;;;10.95;6.95;;;;;;;15.87;53.19;99967.56;5135294;27;20866;-62
2021/08/29 01:17:56;;;;;;;9.88;7.13;;;;;;;15.89;53.21;99973.69;5134946;27;20106;-61
2021/08/29 01:20:36;;;;;;;10.95;7.32;;;;;;;15.96;53.16;99973.91;5136520;27;20613;-61
2021/08/29 01:23:02;;;;;;;11.38;7.85;;;;;;;15.91;53.06;99964.44;5134496;27;20073;-61
2021/08/29 01:25:33;;;;;;;11.75;8.02;;;;;;;16.01;52.59;99971.59;5135833;27;20118;-62
2021/08/29 01:28:07;;;;;;;14.98;8.48;;;;;;;16.06;52.43;99967.44;5136366;27;20490;-61
2021/08/29 01:30:36;;;;;;;12.57;8.38;;;;;;;16.00;52.80;99964.50;5136231;27;20034;-64
2021/08/29 01:33:03;;;;;;;12.30;8.52;;;;;;;15.97;52.77;99948.59;5134797;27;20023;-62
2021/08/29 01:35:29;;;;;;;14.02;8.55;;;;;;;16.04;52.44;99955.94;5133713;27;20072;-61
2021/08/29 01:37:55;;;;;;;11.25;8.52;;;;;;;16.14;52.09;99968.50;5136209;27;20031;-61
2021/08/29 01:40:21;;;;;;;14.07;8.63;;;;;;;16.13;52.05;99959.53;5134511;27;20516;-61
2021/08/29 01:42:47;;;;;;;10.93;8.27;;;;;;;16.08;52.47;99967.25;5135340;27;20035;-60
2021/08/29 01:45:15;;;;;;;10.70;8.05;;;;;;;16.01;52.74;99958.91;5135092;27;20039;-62
2021/08/29 01:47:40;;;;;;;15.93;8.90;;;;;;;15.91;52.60;99934.75;5130838;27;20026;-61
2021/08/29 01:50:07;;;;;;;12.25;9.38;;;;;;;16.13;52.37;99959.53;5114702;28;20027;-61
2021/08/29 01:52:33;;;;;;;12.90;8.98;;;;;;;16.14;52.28;99960.38;5114860;28;20122;-61
2021/08/29 01:54:58;;;;;;;15.75;8.98;;;;;;;16.12;52.16;99960.53;5114636;28;20380;-61
2021/08/29 01:57:24;;;;;;;10.98;8.27;;;;;;;16.06;52.16;99953.06;5114802;28;20030;-62
2021/08/29 01:59:50;;;;;;;16.95;9.70;;;;;;;16.09;52.12;99960.00;5115775;27;20038;-60
2021/08/29 02:02:17;;;;;;;14.60;9.23;;;;;;;15.90;52.19;99924.91;5114630;27;20390;-60
2021/08/29 02:04:44;;;;;;;16.65;9.15;;;;;;;16.10;52.33;99965.25;5114036;28;20050;-60
2021/08/29 02:07:23;;;;;;;13.93;8.68;;;;;;;16.13;52.45;99961.41;5113186;28;20460;-59
2021/08/29 02:09:52;;;;;;;15.00;8.80;;;;;;;16.11;52.03;99971.50;5114339;28;20042;-61
2021/08/29 02:12:18;;;;;;;11.75;9.07;;;;;;;16.05;52.58;99967.56;5115674;27;20027;-61
2021/08/29 02:14:51;;;;;;;15.35;8.88;;;;;;;16.06;52.22;99963.88;5114760;28;20055;-61
2021/08/29 02:17:20;;;;;;;12.88;9.68;;;;;;;16.02;52.44;99954.38;5112795;28;20023;-61
2021/08/29 02:19:47;;;;;;;13.80;9.05;;;;;;;15.84;52.67;99935.47;5115846;28;20183;-61
2021/08/29 02:22:13;;;;;;;13.93;8.50;;;;;;;16.05;52.43;99963.03;5126702;28;20066;-61
2021/08/29 02:24:39;;;;;;;13.65;9.30;;;;;;;16.03;52.61;99956.91;5122776;27;20492;-63
2021/08/29 02:27:05;;;;;;;15.13;8.93;;;;;;;16.00;52.66;99956.41;5114859;27;20057;-61
2021/08/29 02:29:31;;;;;;;12.40;9.00;;;;;;;16.12;52.25;99963.22;5114228;28;20031;-60
2021/08/29 02:31:57;;;;;;;16.10;9.13;;;;;;;15.96;52.47;99930.72;5114301;28;20028;-61
2021/08/29 02:34:23;;;;;;;12.77;8.98;;;;;;;16.09;52.44;99955.44;5113946;28;20369;-61
2021/08/29 02:36:49;;;;;;;13.73;8.80;;;;;;;16.13;52.62;99962.22;5114755;27;20034;-62
2021/08/29 02:39:18;;;;;;;13.85;8.73;;;;;;;16.13;52.33;99959.53;5113945;27;20035;-61
2021/08/29 02:41:44;;;;;;;14.80;8.32;;;;;;;16.18;52.44;99956.38;5113636;28;20031;-60
2021/08/29 02:44:11;;;;;;;13.38;8.38;;;;;;;16.19;52.35;99953.50;5113796;28;20035;-59
2021/08/29 02:46:37;;;;;;;14.43;8.57;;;;;;;16.24;52.08;99960.28;5113870;28;20104;-61
2021/08/29 02:49:05;;;;;;;11.63;8.75;;;;;;;16.20;51.97;99955.22;5113614;28;20032;-60
2021/08/29 02:51:30;;;;;;;12.93;9.65;;;;;;;16.15;52.29;99960.22;5114976;27;20348;-62
2021/08/29 02:53:57;;;;;;;13.30;8.32;;;;;;;16.09;52.55;99952.75;5113720;28;20076;-62
2021/08/29 02:56:23;;;;;;;12.65;9.18;;;;;;;15.90;52.71;99933.00;5113714;28;20094;-61
2021/08/29 02:59:00;;;;;;;12.52;9.32;;;;;;;16.02;52.75;99957.91;5113226;28;20034;-61
2021/08/29 03:01:26;;;;;;;14.38;8.27;;;;;;;15.99;52.86;99968.19;5113690;28;20020;-61
2021/08/29 03:03:52;;;;;;;15.38;8.35;;;;;;;15.93;53.08;99962.44;5114709;27;20031;-60
2021/08/29 03:06:17;;;;;;;22.38;9.52;;;;;;;15.93;53.28;99954.31;5113199;28;20067;-60
2021/08/29 03:08:43;;;;;;;17.23;8.80;;;;;;;15.69;53.16;99935.19;5113354;28;20059;-61
2021/08/29 03:11:09;;;;;;;11.45;8.48;;;;;;;15.86;53.40;99965.88;5113850;28;20364;-61
2021/08/29 03:13:36;;;;;;;14.88;8.85;;;;;;;15.87;53.32;99965.69;5113593;28;20028;-61
2021/08/29 03:16:01;;;;;;;16.98;8.82;;;;;;;15.79;53.57;99958.41;5113714;27;20115;-60
2021/08/29 03:18:30;;;;;;;15.15;9.30;;;;;;;15.90;53.39;99965.41;5113221;28;20110;-60
2021/08/29 03:20:56;;;;;;;19.92;9.18;;;;;;;15.92;53.29;99958.03;5112787;28;20028;-61
2021/08/29 03:23:21;;;;;;;18.85;9.23;;;;;;;16.03;53.20;99970.41;5112968;28;20469;-61
2021/08/29 03:25:47;;;;;;;18.88;9.30;;;;;;;16.15;52.71;99962.91;5113320;28;20039;-60
2021/08/29 03:28:13;;;;;;;14.38;8.85;;;;;;;16.28;52.33;99967.06;5117028;27;20150;-63
2021/08/29 03:30:38;;;;;;;15.73;9.85;;;;;;;16.45;52.01;99957.22;5133813;27;20035;-61
2021/08/29 03:33:04;;;;;;;19.08;9.55;;;;;;;16.67;51.31;99966.66;5132340;27;20449;-61
2021/08/29 03:35:30;;;;;;;13.40;8.95;;;;;;;16.85;51.01;99965.72;5133630;27;20102;-60
2021/08/29 03:37:57;;;;;;;15.30;9.00;;;;;;;17.14;50.09;99964.53;5131921;27;20445;-60
2021/08/29 03:40:23;;;;;;;15.48;9.43;;;;;;;17.43;49.64;99971.41;5114453;27;20076;-61
2021/08/29 03:42:49;;;;;;;14.55;9.07;;;;;;;18.15;47.72;99961.84;5111693;28;20044;-60
2021/08/29 03:45:15;;;;;;;13.82;9.50;;;;;;;18.78;45.51;99927.66;5112597;28;20040;-60
2021/08/29 03:47:41;;;;;;;15.30;9.95;;;;;;;19.57;43.94;99958.53;5094213;28;20050;-61
2021/08/29 03:50:07;;;;;;;15.52;9.02;;;;;;;20.10;42.49;99946.94;5110893;28;20164;-60
2021/08/29 03:52:33;;;;;;;15.68;9.65;;;;;;;20.40;41.34;99957.88;5112328;27;20504;-60
2021/08/29 03:54:59;;;;;;;18.27;10.73;;;;;;;20.43;41.11;99908.53;5112453;28;20034;-61
2021/08/29 03:57:25;;;;;;;17.02;9.80;;;;;;;21.02;40.33;99942.25;5112241;28;20034;-60
2021/08/29 03:59:51;;;;;;;18.40;10.23;;;;;;;21.70;38.74;99927.53;5111984;28;20023;-60
2021/08/29 04:02:16;;;;;;;14.02;9.38;;;;;;;22.32;37.65;99937.91;5112002;28;20053;-60
2021/08/29 04:04:42;;;;;;;19.88;9.82;;;;;;;22.52;37.17;99927.16;5125704;27;20086;-60
2021/08/29 04:07:09;;;;;;;19.20;9.13;;;;;;;22.83;36.23;99933.22;5132628;27;20045;-61
2021/08/29 04:09:35;;;;;;;13.27;9.73;;;;;;;22.86;36.37;99938.25;5132534;27;20490;-61
2021/08/29 04:12:02;;;;;;;15.80;10.10;;;;;;;22.57;36.72;99940.19;5132396;27;20143;-60
2021/08/29 04:14:28;;;;;;;17.45;9.75;;;;;;;22.85;36.16;99937.44;5132525;27;20134;-59
2021/08/29 04:16:55;;;;;;;15.02;9.60;;;;;;;23.81;34.60;99943.00;5130505;27;20042;-61
2021/08/29 04:19:22;;;;;;;14.88;9.77;;;;;;;24.73;32.85;99941.53;5132277;27;20106;-60
2021/08/29 04:21:48;;;;;;;15.75;9.73;;;;;;;25.50;31.51;99952.63;5132206;27;20447;-61
2021/08/29 04:24:14;;;;;;;15.75;10.02;;;;;;;26.18;30.36;99942.06;5133035;27;20071;-61
2021/08/29 04:26:40;;;;;;;15.90;9.52;;;;;;;26.72;29.50;99941.53;5131985;27;20023;-61
2021/08/29 04:29:06;;;;;;;15.35;10.05;;;;;;;26.71;29.15;99939.84;5129650;27;20030;-60
2021/08/29 04:31:33;;;;;;;16.85;9.90;;;;;;;27.24;29.02;99940.28;5132375;27;20057;-60
2021/08/29 04:34:03;;;;;;;17.30;10.07;;;;;;;27.56;28.43;99934.63;5130805;27;20503;-61
2021/08/29 04:36:30;;;;;;;16.75;9.68;;;;;;;28.09;26.92;99943.09;5132120;27;20385;-60
2021/08/29 04:38:58;;;;;;;18.98;11.13;;;;;;;28.59;26.47;99935.47;5132148;27;20029;-60
2021/08/29 04:41:23;;;;;;;12.98;9.93;;;;;;;29.19;25.39;99941.75;5130740;27;20023;-60
2021/08/29 04:43:49;;;;;;;12.82;9.75;;;;;;;29.57;24.96;99934.75;5131741;27;20109;-61
2021/08/29 04:46:15;;;;;;;14.98;9.90;;;;;;;30.42;23.74;99922.94;5132533;27;20023;-62
2021/08/29 04:48:40;;;;;;;15.05;9.23;;;;;;;31.33;22.77;99934.63;5131672;27;20042;-61
2021/08/29 04:51:06;;;;;;;17.10;10.20;;;;;;;31.67;22.01;99930.00;5132173;27;20075;-60
2021/08/29 04:53:31;;;;;;;11.55;9.50;;;;;;;31.95;21.47;99928.06;5131741;27;20027;-61
2021/08/29 04:55:56;;;;;;;15.55;8.65;;;;;;;32.52;20.81;99931.25;5130076;27;20039;-62
2021/08/29 04:58:22;;;;;;;14.80;9.60;;;;;;;33.36;19.65;99925.78;5130656;28;20121;-61
2021/08/29 05:00:47;;;;;;;13.75;9.77;;;;;;;34.28;18.69;99909.50;5131056;28;20027;-61
2021/08/29 05:03:13;;;;;;;13.45;8.60;;;;;;;35.42;18.08;99940.50;5131739;27;20034;-62
2021/08/29 05:05:38;;;;;;;12.32;9.38;;;;;;;35.01;18.04;99936.00;5131902;27;20035;-62
2021/08/29 05:08:04;;;;;;;13.43;8.13;;;;;;;33.59;19.44;99949.47;5130347;27;20469;-60
2021/08/29 05:10:29;;;;;;;12.57;9.07;;;;;;;32.11;21.39;99943.69;5132181;27;20030;-60
2021/08/29 05:12:55;;;;;;;15.35;9.32;;;;;;;30.88;22.89;99938.50;5130349;28;20038;-61
2021/08/29 05:15:20;;;;;;;13.23;8.52;;;;;;;29.95;23.80;99946.19;5130459;28;20035;-62
2021/08/29 05:17:46;;;;;;;17.23;9.18;;;;;;;29.07;25.20;99939.84;5131839;27;20072;-62
2021/08/29 05:20:12;;;;;;;14.13;8.98;;;;;;;28.49;26.02;99942.44;5129835;27;20030;-61
2021/08/29 05:22:37;;;;;;;13.38;9.30;;;;;;;29.99;23.94;99928.03;5131375;27;20428;-62
2021/08/29 05:25:04;;;;;;;12.93;9.25;;;;;;;31.93;21.50;99931.06;5129673;28;20041;-60
2021/08/29 05:27:29;;;;;;;12.70;9.48;;;;;;;33.60;19.65;99930.84;5131750;27;20509;-61
2021/08/29 05:29:54;;;;;;;17.48;9.55;;;;;;;34.68;18.49;99918.84;5130605;28;20158;-61
2021/08/29 05:32:20;;;;;;;13.15;9.15;;;;;;;35.49;17.53;99926.28;5122115;27;20027;-63
2021/08/29 05:34:45;;;;;;;12.60;9.38;;;;;;;35.59;17.84;99925.41;5111503;28;20393;-60
2021/08/29 05:37:11;;;;;;;16.30;9.05;;;;;;;36.25;16.69;99923.19;5125984;27;20464;-61
2021/08/29 05:39:36;;;;;;;12.25;8.73;;;;;;;35.78;17.08;99928.31;5130883;27;20388;-60
2021/08/29 05:42:02;;;;;;;12.70;8.95;;;;;;;34.60;18.07;99936.94;5133247;27;20499;-62
2021/08/29 05:44:27;;;;;;;11.20;8.45;;;;;;;35.23;17.72;99932.00;5129469;27;20024;-60
2021/08/29 05:46:53;;;;;;;13.25;8.40;;;;;;;36.56;16.24;99936.00;5112694;28;20479;-62
2021/08/29 05:49:18;;;;;;;10.10;8.65;;;;;;;37.10;15.62;99925.59;5113118;28;20157;-63
2021/08/29 05:51:44;;;;;;;15.68;8.65;;;;;;;36.52;16.43;99929.34;5111946;28;20115;-63
2021/08/29 05:54:09;;;;;;;12.45;9.10;;;;;;;35.96;16.81;99925.94;5112812;28;20059;-61
2021/08/29 05:56:35;;;;;;;11.55;8.82;;;;;;;37.27;15.75;99922.28;5118709;27;20422;-61
2021/08/29 05:59:00;;;;;;;14.77;8.75;;;;;;;38.92;13.89;99931.78;5134396;27;20384;-61
2021/08/29 06:01:26;;;;;;;13.38;8.45;;;;;;;40.13;13.24;99935.13;5133682;27;20115;-61
2021/08/29 06:03:51;;;;;;;14.57;9.65;;;;;;;39.78;13.08;99932.06;5135419;27;20365;-61
2021/08/29 06:06:17;;;;;;;11.00;9.20;;;;;;;40.05;13.04;99933.13;5134165;27;20079;-62
2021/08/29 06:08:42;;;;;;;15.35;9.73;;;;;;;40.66;12.27;99929.78;5132722;27;20092;-61
2021/08/29 06:11:08;;;;;;;11.32;9.25;;;;;;;40.62;12.27;99923.97;5135312;27;20031;-60
2021/08/29 06:13:35;;;;;;;10.18;8.43;;;;;;;41.29;12.25;99932.44;5135006;27;20109;-61
2021/08/29 06:16:01;;;;;;;15.20;9.52;;;;;;;41.30;12.22;99931.28;5134704;27;20449;-62
2021/08/29 06:18:27;;;;;;;16.52;9.40;;;;;;;41.14;12.15;99902.00;5133569;27;20027;-65
2021/08/29 06:20:52;;;;;;;10.52;9.30;;;;;;;41.95;11.60;99922.16;5118670;27;20042;-65
2021/08/29 06:23:18;;;;;;;11.30;9.25;;;;;;;42.18;11.50;99931.22;5114736;28;20385;-64
2021/08/29 06:25:44;;;;;;;10.77;8.73;;;;;;;41.40;11.85;99926.50;5113990;28;20043;-65
2021/08/29 06:28:09;;;;;;;12.23;9.15;;;;;;;40.85;12.26;99931.53;5112891;28;20032;-65
2021/08/29 06:30:35;;;;;;;13.15;10.07;;;;;;;41.85;11.56;99920.53;5112758;28;20423;-67
2021/08/29 06:33:00;;;;;;;10.65;8.82;;;;;;;43.08;10.48;99927.69;5111611;27;20033;-64
2021/08/29 06:35:26;;;;;;;12.60;9.30;;;;;;;43.91;10.01;99917.91;5111997;28;20031;-65
2021/08/29 06:37:51;;;;;;;12.13;8.70;;;;;;;44.06;10.19;99927.69;5111840;28;20443;-65
2021/08/29 06:40:17;;;;;;;12.18;8.88;;;;;;;44.30;9.73;99926.94;5125463;27;20019;-65
2021/08/29 06:42:42;;;;;;;14.30;9.57;;;;;;;44.52;9.85;99922.03;5129379;27;20102;-65
2021/08/29 06:45:12;;;;;;;10.45;9.35;;;;;;;45.12;9.92;99925.16;5127689;27;20637;-63
2021/08/29 06:47:37;;;;;;;10.93;8.90;;;;;;;45.08;9.05;99926.22;5131083;27;20098;-63
2021/08/29 06:50:04;;;;;;;13.45;8.85;;;;;;;45.52;9.05;99934.84;5132576;27;20102;-64
2021/08/29 06:52:30;;;;;;;11.30;9.27;;;;;;;45.34;8.81;99905.22;5131844;27;20096;-64
2021/08/29 06:54:56;;;;;;;11.77;9.40;;;;;;;45.36;9.08;99914.19;5132740;27;20446;-63
2021/08/29 06:57:24;;;;;;;12.38;9.18;;;;;;;45.15;9.38;99918.00;5130933;27;20023;-65
2021/08/29 06:59:51;;;;;;;10.98;9.18;;;;;;;44.31;9.66;99923.78;5132736;27;20027;-64
2021/08/29 07:02:16;;;;;;;11.50;8.43;;;;;;;43.11;10.81;99914.91;5132583;27;20472;-66
2021/08/29 07:04:43;;;;;;;12.93;8.88;;;;;;;43.63;10.38;99918.47;5131083;27;20104;-65
2021/08/29 07:07:09;;;;;;;12.02;9.43;;;;;;;45.03;9.56;99916.03;5132471;27;20444;-64
2021/08/29 07:09:38;;;;;;;12.50;8.93;;;;;;;43.87;9.98;99914.97;5128110;27;20030;-65
2021/08/29 07:12:04;;;;;;;12.98;8.80;;;;;;;40.02;13.28;99902.91;5130225;27;20119;-65
2021/08/29 07:14:30;;;;;;;14.23;9.73;;;;;;;37.18;15.73;99898.97;5131119;27;20039;-65
2021/08/29 07:16:55;;;;;;;18.35;9.70;;;;;;;35.59;17.18;99901.16;5144307;27;20019;-64
2021/08/29 07:19:21;;;;;;;14.85;9.25;;;;;;;34.91;17.64;99888.72;5140786;27;20027;-64
2021/08/29 07:21:46;;;;;;;13.02;9.10;;;;;;;33.85;19.05;99893.94;5129946;27;20404;-64
2021/08/29 07:24:12;;;;;;;16.85;8.55;;;;;;;32.76;20.42;99895.63;5132468;27;20196;-63
2021/08/29 07:26:37;;;;;;;16.08;8.93;;;;;;;31.66;21.51;99895.94;5131473;27;20030;-63
2021/08/29 07:29:03;;;;;;;14.70;9.30;;;;;;;30.77;22.62;99898.84;5132373;27;20583;-63
2021/08/29 07:31:28;;;;;;;13.38;9.48;;;;;;;31.90;21.57;99885.38;5131211;27;20078;-62
2021/08/29 07:33:55;;;;;;;17.92;10.32;;;;;;;35.39;17.99;99893.78;5129304;27;20051;-64
2021/08/29 07:36:21;;;;;;;17.20;9.73;;;;;;;37.43;15.76;99866.22;5111470;28;20042;-66
2021/08/29 07:38:47;;;;;;;15.60;9.60;;;;;;;39.67;13.72;99894.25;5111695;28;20031;-68
2021/08/29 07:41:12;;;;;;;13.48;9.80;;;;;;;41.44;12.20;99885.34;5110954;28;20042;-67
2021/08/29 07:43:38;;;;;;;14.65;10.23;;;;;;;41.97;11.77;99886.09;5111329;28;20030;-66
2021/08/29 07:46:04;;;;;;;11.63;9.77;;;;;;;42.37;11.42;99887.81;5112428;27;20426;-63
2021/08/29 07:48:30;;;;;;;19.75;10.25;;;;;;;43.13;11.24;99885.25;5109525;28;20472;-66
2021/08/29 07:50:55;;;;;;;10.50;9.27;;;;;;;43.74;10.50;99874.63;5109805;28;20078;-63
2021/08/29 07:53:21;;;;;;;21.15;9.98;;;;;;;44.00;10.68;99854.56;5114719;27;20038;-64
2021/08/29 07:55:46;;;;;;;16.15;10.00;;;;;;;44.15;10.62;99843.81;5130619;27;20130;-64
2021/08/29 07:58:12;;;;;;;17.88;10.02;;;;;;;43.66;10.78;99855.78;5131243;27;20027;-64
2021/08/29 08:00:38;;;;;;;18.13;10.45;;;;;;;43.01;11.20;99866.28;5129387;27;20027;-66
2021/08/29 08:03:04;;;;;;;13.88;9.88;;;;;;;42.66;11.54;99872.09;5129222;27;20035;-63
2021/08/29 08:05:29;;;;;;;22.95;9.65;;;;;;;42.22;11.91;99860.25;5129473;27;20172;-65
2021/08/29 08:07:54;;;;;;;13.48;9.57;;;;;;;40.80;12.92;99861.53;5129892;27;20095;-64
2021/08/29 08:10:23;;;;;;;14.50;9.27;;;;;;;38.56;14.91;99868.16;5129229;27;20404;-64
2021/08/29 08:12:48;;;;;;;17.90;9.48;;;;;;;36.41;17.09;99845.78;5115898;27;20214;-64
2021/08/29 08:15:14;;;;;;;20.70;10.02;;;;;;;34.89;19.14;99865.94;5109211;27;20472;-63
2021/08/29 08:17:40;;;;;;;16.27;10.73;;;;;;;33.00;21.17;99857.19;5117001;27;20027;-64
2021/08/29 08:20:07;;;;;;;19.80;10.18;;;;;;;31.31;23.57;99875.16;5129549;27;20044;-63
2021/08/29 08:22:33;;;;;;;17.48;10.00;;;;;;;30.40;24.67;99875.41;5119972;27;20067;-63
2021/08/29 08:24:59;;;;;;;16.83;9.93;;;;;;;29.71;25.72;99862.72;5117803;27;20037;-64
2021/08/29 08:27:24;;;;;;;19.02;10.75;;;;;;;29.06;26.76;99874.78;5130635;27;20533;-64
2021/08/29 08:29:50;;;;;;;20.23;10.95;;;;;;;28.34;28.17;99867.72;5131263;27;20217;-64
2021/08/29 08:32:15;;;;;;;12.98;9.63;;;;;;;27.45;29.27;99833.63;5131774;27;20038;-62
2021/08/29 08:34:41;;;;;;;18.05;10.30;;;;;;;27.39;30.24;99868.44;5131747;27;20023;-64
2021/08/29 08:37:07;;;;;;;17.02;10.52;;;;;;;26.86;30.94;99857.09;5124990;27;20377;-63
2021/08/29 08:39:32;;;;;;;17.92;10.32;;;;;;;26.56;32.18;99857.03;5131741;27;20106;-65
2021/08/29 08:41:59;;;;;;;19.48;11.15;;;;;;;26.49;31.95;99865.31;5125878;27;21706;-62
2021/08/29 08:44:24;;;;;;;22.25;10.73;;;;;;;26.11;32.13;99833.38;5125531;27;20045;-63
2021/08/29 08:46:54;;;;;;;18.00;10.10;;;;;;;26.20;32.60;99865.00;5131561;27;20432;-66
2021/08/29 08:49:20;;;;;;;20.08;10.00;;;;;;;26.42;32.36;99859.91;5117442;27;20057;-64
2021/08/29 08:51:47;;;;;;;17.70;10.38;;;;;;;26.44;32.34;99867.94;5119156;28;20039;-64
2021/08/29 08:54:16;;;;;;;23.05;9.77;;;;;;;26.40;31.92;99822.75;5143923;27;20031;-63
2021/08/29 08:56:42;;;;;;;18.77;9.20;;;;;;;26.65;31.88;99837.28;5134626;27;20023;-63
2021/08/29 08:59:08;;;;;;;14.60;9.73;;;;;;;26.80;31.31;99847.84;5148290;27;20111;-61
2021/08/29 09:01:33;;;;;;;17.98;9.60;;;;;;;26.54;32.11;99850.94;5136012;27;20059;-62
2021/08/29 09:03:59;;;;;;;27.20;8.63;;;;;;;26.61;32.73;99859.91;5119874;28;20054;-60
2021/08/29 09:06:25;;;;;;;17.65;10.30;;;;;;;26.49;32.07;99830.47;5146073;27;20080;-63
2021/08/29 09:08:50;;;;;;;15.80;9.63;;;;;;;26.48;32.23;99859.00;5132968;27;20023;-64
2021/08/29 09:11:16;;;;;;;16.30;9.93;;;;;;;26.25;32.65;99820.41;5129234;28;20065;-68
2021/08/29 09:13:48;;;;;;;18.27;9.98;;;;;;;26.63;31.83;99860.53;5130380;27;20131;-66
2021/08/29 09:16:25;;;;;;;19.35;9.25;;;;;;;26.62;32.05;99856.91;5136456;27;20039;-65
2021/08/29 09:18:59;;;;;;;16.70;9.25;;;;;;;26.33;32.88;99861.28;5152189;27;20041;-62
2021/08/29 09:21:38;;;;;;;14.15;8.70;;;;;;;26.35;32.75;99845.44;5136014;27;20027;-64
2021/08/29 09:24:09;;;;;;;14.02;8.93;;;;;;;26.09;32.77;99820.75;5129106;27;20046;-61
2021/08/29 09:26:43;;;;;;;14.63;8.20;;;;;;;26.54;32.97;99848.19;5132560;27;20042;-62
2021/08/29 09:29:24;;;;;;;14.88;8.98;;;;;;;26.93;32.02;99849.63;5129099;27;20037;-65
2021/08/29 09:31:50;;;;;;;14.38;8.48;;;;;;;27.17;32.11;99843.38;5133968;27;20107;-63
2021/08/29 09:34:20;;;;;;;14.50;9.23;;;;;;;27.47;31.02;99854.34;5129523;27;20101;-63
2021/08/29 09:36:45;;;;;;;15.93;9.30;;;;;;;27.28;31.75;99849.97;5125103;27;20131;-65
2021/08/29 09:39:17;;;;;;;15.80;8.75;;;;;;;27.26;31.59;99868.59;5126221;27;20114;-65
2021/08/29 09:41:43;;;;;;;19.30;9.77;;;;;;;26.90;32.14;99844.59;5116214;27;20031;-70
2021/08/29 09:44:16;;;;;;;17.27;8.98;;;;;;;27.07;31.68;99872.25;5114212;28;20032;-66
2021/08/29 09:46:55;;;;;;;18.65;8.23;;;;;;;27.41;31.42;99879.16;5123807;27;20484;-65
2021/08/29 09:49:26;;;;;;;13.18;9.10;;;;;;;27.63;31.15;99879.53;5114351;28;20039;-65
2021/08/29 09:51:53;;;;;;;17.30;9.07;;;;;;;27.76;31.35;99873.78;5114132;28;20034;-66
2021/08/29 09:54:41;;;;;;;18.98;10.13;;;;;;;28.06;30.53;99888.53;5112685;28;20118;-64
2021/08/29 09:57:12;;;;;;;16.08;9.20;;;;;;;27.82;31.52;99899.53;5114769;27;20031;-64
2021/08/29 09:59:45;;;;;;;13.82;8.82;;;;;;;27.93;31.13;99879.41;5112264;28;20059;-65
2021/08/29 10:02:18;;;;;;;14.40;8.90;;;;;;;28.31;31.03;99858.03;5113915;28;20031;-66
2021/08/29 10:04:43;;;;;;;15.43;9.35;;;;;;;28.15;30.75;99826.56;5113782;28;20069;-64
2021/08/29 10:07:14;;;;;;;14.30;9.00;;;;;;;28.20;31.03;99845.94;5121892;27;20031;-64
2021/08/29 10:09:40;;;;;;;16.45;9.82;;;;;;;27.88;31.23;99854.53;5115262;27;20062;-65
2021/08/29 10:12:07;;;;;;;17.60;8.93;;;;;;;27.68;32.02;99867.78;5112431;28;20031;-65
2021/08/29 10:14:35;;;;;;;16.00;9.55;;;;;;;27.51;32.18;99827.25;5132502;27;20054;-64
2021/08/29 10:17:01;;;;;;;16.35;9.52;;;;;;;27.60;32.18;99845.06;5132816;27;20031;-66
2021/08/29 10:19:29;;;;;;;16.10;9.73;;;;;;;27.64;32.20;99853.69;5134372;27;20075;-64
2021/08/29 10:21:55;;;;;;;20.05;10.52;;;;;;;27.61;32.42;99848.63;5123718;27;20126;-65
2021/08/29 10:24:22;;;;;;;14.25;9.38;;;;;;;27.50;32.51;99844.78;5129103;27;20036;-64
2021/08/29 10:26:52;;;;;;;21.73;9.75;;;;;;;27.21;32.36;99790.47;5110501;28;20062;-65
2021/08/29 10:29:25;;;;;;;16.92;9.75;;;;;;;27.56;32.49;99851.25;5128756;27;20118;-65
2021/08/29 10:32:13;;;;;;;15.73;8.90;;;;;;;27.37;32.85;99849.41;5131456;27;20035;-66
2021/08/29 10:34:40;;;;;;;14.35;8.98;;;;;;;26.79;34.16;99824.19;5111562;28;20110;-66
2021/08/29 10:37:05;;;;;;;15.75;8.55;;;;;;;26.88;34.13;99852.19;5111515;28;20088;-65
2021/08/29 10:39:31;;;;;;;14.27;9.43;;;;;;;26.90;34.13;99852.84;5114238;27;20501;-64
2021/08/29 10:41:58;;;;;;;16.45;9.60;;;;;;;26.98;34.10;99865.38;5113335;28;20123;-65
2021/08/29 10:44:24;;;;;;;19.35;9.43;;;;;;;27.10;34.40;99839.88;5113174;28;20046;-65
2021/08/29 10:46:50;;;;;;;14.02;9.35;;;;;;;27.37;34.09;99843.09;5113417;28;20032;-68
2021/08/29 10:49:19;;;;;;;15.20;9.43;;;;;;;27.54;33.38;99843.28;5128441;27;20031;-68
2021/08/29 10:51:46;;;;;;;12.57;8.50;;;;;;;27.67;33.19;99836.72;5132161;27;20027;-67
2021/08/29 10:54:14;;;;;;;17.55;9.98;;;;;;;27.76;33.15;99850.97;5116151;27;20039;-68
2021/08/29 10:56:41;;;;;;;14.27;9.55;;;;;;;27.54;33.71;99854.28;5113369;27;20054;-65
2021/08/29 10:59:06;;;;;;;17.60;9.98;;;;;;;27.28;34.00;99849.97;5113939;27;20031;-64
2021/08/29 11:01:40;;;;;;;14.77;8.88;;;;;;;27.31;34.32;99864.09;5113174;28;20176;-66
2021/08/29 11:04:18;;;;;;;14.48;10.45;;;;;;;27.37;33.72;99860.41;5111916;28;20127;-62
2021/08/29 11:06:44;;;;;;;16.75;9.15;;;;;;;27.27;34.57;99849.16;5132829;27;20500;-63
2021/08/29 11:09:31;;;;;;;15.73;8.93;;;;;;;27.57;33.62;99858.44;5131933;27;20042;-62
2021/08/29 11:12:00;;;;;;;19.48;10.15;;;;;;;26.68;35.66;99827.72;5112938;27;20031;-65
2021/08/29 11:14:47;;;;;;;16.13;9.40;;;;;;;26.69;35.36;99861.53;5124733;27;20035;-64
2021/08/29 11:17:20;;;;;;;13.48;9.18;;;;;;;26.46;36.01;99861.13;5130083;27;20062;-66
2021/08/29 11:19:48;;;;;;;12.25;8.82;;;;;;;26.29;36.69;99855.41;5117244;27;20111;-65
2021/08/29 11:22:18;;;;;;;13.35;8.75;;;;;;;26.06;36.65;99845.06;5135706;27;20461;-67
2021/08/29 11:25:08;;;;;;;12.98;8.07;;;;;;;26.24;36.64;99868.97;5111374;28;20039;-66